TimeIST,TemperatureF,Dew PointF,Humidity,Sea Level PressureIn,VisibilityMPH,Wind Direction,Wind SpeedMPH,Gust SpeedMPH,PrecipitationIn,Events,Conditions,WindDirDegrees,DateUTC
5:30 AM,87,81,77,29.39,2,Calm,Calm,,,,,,2013-06-22 00:00:00
5:30 AM,86.0,80.6,84,29.44,3.7,Calm,Calm,-,N/A,,Unknown,0,2013-06-22 00:00:00
7:00 AM,87.8,78.8,75,29.44,3.1,Calm,Calm,-,N/A,,Unknown,0,2013-06-22 01:30:00
8:00 AM,89.6,78.8,70,29.47,3.1,Calm,Calm,-,N/A,,Scattered Clouds,0,2013-06-22 02:30:00
8:30 AM,91.4,80.6,71,29.47,3.1,SSW,8.1,-,N/A,,Haze,200,2013-06-22 03:00:00
9:30 AM,93.2,80.6,67,29.47,3.1,SW,6.9,-,N/A,,Haze,230,2013-06-22 04:00:00
11:30 AM,98,78,45,29.42,2,SSW,3.5,,,,Widespread Dust,200,2013-06-22 06:00:00
11:30 AM,98.6,78.8,53,29.47,3.1,Variable,3.5,-,N/A,,Unknown,0,2013-06-22 06:00:00
12:00 PM,98.6,78.8,53,29.47,3.1,SSE,3.5,-,N/A,,Unknown,150,2013-06-22 06:30:00
1:00 PM,100.4,78.8,50,29.47,3.7,South,6.9,-,N/A,,Unknown,180,2013-06-22 07:30:00
1:30 PM,102.2,78.8,47,29.47,3.7,SSE,8.1,-,N/A,,Unknown,160,2013-06-22 08:00:00
2:00 PM,104.0,80.6,48,29.44,3.7,SSE,8.1,-,N/A,,Scattered Clouds,160,2013-06-22 08:30:00
2:30 PM,102,77,36,29.39,2,South,11.5,,,,Scattered Clouds,180,2013-06-22 09:00:00
3:30 PM,102.2,77.0,45,29.44,3.7,South,10.4,-,N/A,,Scattered Clouds,180,2013-06-22 10:00:00
5:30 PM,98.6,78.8,53,29.42,3.7,SSW,9.2,-,N/A,,Unknown,200,2013-06-22 12:00:00
6:00 PM,96.8,77.0,53,29.42,3.7,South,6.9,-,N/A,,Unknown,190,2013-06-22 12:30:00
6:30 PM,96.8,77.0,53,29.42,3.7,South,4.6,-,N/A,,Unknown,180,2013-06-22 13:00:00
7:00 PM,93.2,75.2,56,29.42,3.7,Variable,2.3,-,N/A,,Unknown,0,2013-06-22 13:30:00
7:30 PM,93.2,75.2,56,29.42,3.7,Calm,Calm,-,N/A,,Unknown,0,2013-06-22 14:00:00
8:00 PM,93.2,77.0,59,29.42,3.7,Calm,Calm,-,N/A,,Unknown,0,2013-06-22 14:30:00
8:30 PM,92,78,56,29.36,2,Calm,Calm,,,,,,2013-06-22 15:00:00
10:00 PM,69.8,59.0,68,29.44,3.1,Calm,Calm,-,N/A,,Haze,0,2013-06-22 16:30:00
10:30 PM,89.6,75.2,62,29.44,3.1,Calm,Calm,-,N/A,,Haze,0,2013-06-22 17:00:00
11:30 PM,88,72,51,29.38,2,Calm,Calm,,,,Haze,,2013-06-22 18:00:00
11:30 PM,87.8,73.4,62,29.44,3.1,Calm,Calm,-,N/A,,Haze,0,2013-06-22 18:00:00